Decoded Metar for PPIT ( in ) (IATA:) | Meteo·Mobile Aviation Weather
aviador You're here:

PPIT Decoded Metar

in
Report Time2019-07-22 15:56:00
UTC Time2019-07-22 16:19:22
Flight Rules ifr IFR
Wind040° at 06 kt
W.Decomp.*RWY 36: 4.6 kt HW 3.9 kt RCW
Visibility9999 m
Phenomena:N/A
Clouds:Broken 009 Hf
Overcast 016 Hf
Ceiling900 ft
Temp14°C
Dew Point14°C (100% RH)
AAT13.1°C
QNH1019 hPa
Raw Report
PPIT 221556Z AUTO 04006KT 10SM BKN009 OVC016 14/14 A3010 RMK AO2
SLP193 T01390139 TSNO=

Extra information for PPIT:More info

Social comments